createdAt,value
2017-10-19T00:00:33.895Z,0
2017-10-19T00:01:14.360Z,0
2017-10-19T00:01:54.849Z,0
2017-10-19T00:02:35.275Z,0
2017-10-19T00:03:15.726Z,0
2017-10-19T00:03:56.189Z,0
2017-10-19T00:04:36.622Z,0
2017-10-19T00:05:17.098Z,0
2017-10-19T00:05:57.512Z,0
2017-10-19T00:08:15.357Z,0
2017-10-19T00:08:55.814Z,0
2017-10-19T00:09:36.333Z,0
2017-10-19T00:10:16.749Z,0
2017-10-19T00:10:57.206Z,0
2017-10-19T00:11:37.670Z,0
2017-10-19T00:12:18.129Z,0
2017-10-19T00:12:58.555Z,0
2017-10-19T00:13:39.034Z,0
2017-10-19T00:14:19.517Z,0
2017-10-19T00:14:59.957Z,0
2017-10-19T00:15:40.402Z,0
2017-10-19T00:16:20.860Z,0
2017-10-19T00:17:01.299Z,0
2017-10-19T00:17:41.738Z,0
2017-10-19T00:18:22.183Z,0
2017-10-19T00:19:02.605Z,0
2017-10-19T00:19:43.046Z,0
2017-10-19T00:20:23.530Z,0
2017-10-19T00:21:03.967Z,0
2017-10-19T00:21:44.451Z,0
2017-10-19T00:22:24.894Z,0
2017-10-19T00:23:05.348Z,0
2017-10-19T00:23:45.817Z,0
2017-10-19T00:24:26.252Z,0
2017-10-19T00:25:06.717Z,0
2017-10-19T00:25:47.117Z,0
2017-10-19T00:26:27.532Z,0
2017-10-19T00:29:00.509Z,0
2017-10-19T00:29:40.982Z,0
2017-10-19T00:30:21.428Z,0
2017-10-19T00:31:01.872Z,0
2017-10-19T00:31:42.339Z,0
2017-10-19T00:32:22.765Z,0
2017-10-19T00:33:03.252Z,0
2017-10-19T00:33:43.725Z,0
2017-10-19T00:36:11.633Z,0
2017-10-19T00:36:52.158Z,0
2017-10-19T00:37:32.619Z,0
2017-10-19T00:38:13.124Z,0
2017-10-19T00:38:53.564Z,0
2017-10-19T00:39:34.046Z,0
2017-10-19T00:40:14.549Z,0
2017-10-19T00:40:55.042Z,0
2017-10-19T00:41:35.518Z,0
2017-10-19T00:42:15.982Z,0
2017-10-19T00:42:56.469Z,0
2017-10-19T00:43:36.977Z,0
2017-10-19T00:44:17.437Z,0
2017-10-19T00:44:57.897Z,0
2017-10-19T00:45:38.364Z,0
2017-10-19T00:46:18.860Z,0
2017-10-19T00:46:59.311Z,0
2017-10-19T00:47:39.795Z,0
2017-10-19T00:48:20.259Z,0
2017-10-19T00:49:00.741Z,0
2017-10-19T00:49:41.230Z,0
2017-10-19T00:50:21.757Z,0
2017-10-19T00:51:02.199Z,0
2017-10-19T00:51:42.635Z,0
2017-10-19T00:52:23.068Z,0
2017-10-19T00:53:03.480Z,0
2017-10-19T00:53:43.943Z,0
2017-10-19T00:54:24.390Z,0
2017-10-19T00:55:04.862Z,0
2017-10-19T00:55:45.350Z,0
2017-10-19T00:56:25.772Z,0
2017-10-19T00:57:06.187Z,0
2017-10-19T00:57:46.614Z,0
2017-10-19T00:58:27.069Z,0
2017-10-19T00:59:07.516Z,0
2017-10-19T00:59:47.952Z,0
2017-10-19T01:00:28.371Z,0
2017-10-19T01:01:08.826Z,0
2017-10-19T01:01:49.278Z,0
2017-10-19T01:02:29.727Z,0
2017-10-19T01:03:10.188Z,0
2017-10-19T01:03:50.611Z,0
2017-10-19T01:04:31.097Z,0
2017-10-19T01:05:11.570Z,0
2017-10-19T01:05:52.074Z,0
2017-10-19T01:06:32.553Z,0
2017-10-19T01:07:13.041Z,0
2017-10-19T01:09:51.105Z,0
2017-10-19T01:10:31.591Z,0
2017-10-19T01:11:12.016Z,0
2017-10-19T01:11:52.464Z,0
2017-10-19T01:12:32.966Z,0
2017-10-19T01:14:50.759Z,0
2017-10-19T01:15:31.222Z,0
2017-10-19T01:16:11.699Z,0
2017-10-19T01:16:52.172Z,0
2017-10-19T01:17:32.629Z,0
2017-10-19T01:19:50.513Z,0
2017-10-19T01:20:30.961Z,0
2017-10-19T01:21:11.501Z,0
2017-10-19T01:21:51.965Z,0
2017-10-19T01:22:32.413Z,0
2017-10-19T01:23:12.869Z,0
2017-10-19T01:23:53.321Z,0
2017-10-19T01:24:33.764Z,0
2017-10-19T01:25:14.220Z,0
2017-10-19T01:25:54.658Z,0
2017-10-19T01:26:35.125Z,0
2017-10-19T01:27:15.578Z,0
2017-10-19T01:27:56.024Z,0
2017-10-19T01:28:36.475Z,0
2017-10-19T01:29:16.917Z,0
2017-10-19T01:31:49.911Z,0
2017-10-19T01:32:30.356Z,0
2017-10-19T01:33:10.822Z,0
2017-10-19T01:33:51.317Z,0
2017-10-19T01:34:31.788Z,0
2017-10-19T01:35:12.223Z,0
2017-10-19T01:35:52.659Z,0
2017-10-19T01:38:05.390Z,0
2017-10-19T01:38:45.911Z,0
2017-10-19T01:39:26.369Z,0
2017-10-19T01:40:06.852Z,0
2017-10-19T01:40:47.315Z,0
2017-10-19T01:41:27.715Z,0
2017-10-19T01:42:08.202Z,0
2017-10-19T01:44:25.988Z,0
2017-10-19T01:45:06.475Z,0
2017-10-19T01:45:46.934Z,0
2017-10-19T01:46:27.417Z,0
2017-10-19T01:47:07.909Z,0
2017-10-19T01:49:25.722Z,0
2017-10-19T01:50:06.184Z,0
2017-10-19T01:50:46.607Z,0
2017-10-19T01:51:27.089Z,0
2017-10-19T01:52:07.625Z,0
2017-10-19T01:52:48.024Z,0
2017-10-19T01:53:28.486Z,0
2017-10-19T01:54:08.927Z,0
2017-10-19T01:54:49.398Z,0
2017-10-19T01:55:29.851Z,0
2017-10-19T01:57:47.687Z,0
2017-10-19T01:58:28.125Z,0
2017-10-19T01:59:08.581Z,0
2017-10-19T01:59:49.008Z,0
2017-10-19T02:00:29.510Z,0
2017-10-19T02:01:09.937Z,0
2017-10-19T02:01:50.354Z,0
2017-10-19T02:02:30.837Z,0
2017-10-19T02:03:11.270Z,0
2017-10-19T02:03:51.702Z,0
2017-10-19T02:04:32.160Z,0
2017-10-19T02:05:12.614Z,0
2017-10-19T02:05:53.079Z,0
2017-10-19T02:06:33.529Z,0
2017-10-19T02:07:14.024Z,0
2017-10-19T02:09:47.025Z,0
2017-10-19T02:10:27.521Z,0
2017-10-19T02:11:07.979Z,0
2017-10-19T02:11:48.428Z,0
2017-10-19T02:12:28.881Z,0
2017-10-19T02:13:09.332Z,0
2017-10-19T02:13:49.875Z,0
2017-10-19T02:14:30.301Z,0
2017-10-19T02:15:10.786Z,0
2017-10-19T02:15:51.280Z,0
2017-10-19T02:18:09.119Z,0
2017-10-19T02:18:49.583Z,0
2017-10-19T02:19:30.073Z,0
2017-10-19T02:20:10.527Z,0
2017-10-19T02:20:51.074Z,0
2017-10-19T02:21:31.531Z,0
2017-10-19T02:22:11.976Z,0
2017-10-19T02:22:52.425Z,0
2017-10-19T02:23:32.869Z,0
2017-10-19T02:24:13.316Z,0
2017-10-19T02:24:53.729Z,0
2017-10-19T02:25:34.186Z,0
2017-10-19T02:27:46.889Z,0
2017-10-19T02:28:27.385Z,0
2017-10-19T02:29:07.884Z,0
2017-10-19T02:29:48.368Z,0
2017-10-19T02:30:28.846Z,0
2017-10-19T02:31:09.301Z,0
2017-10-19T02:31:49.760Z,0
2017-10-19T02:32:30.232Z,0
2017-10-19T02:33:10.676Z,0
2017-10-19T02:33:51.123Z,0
2017-10-19T02:34:31.587Z,0
2017-10-19T02:35:12.012Z,0
2017-10-19T02:35:52.446Z,0
2017-10-19T02:36:32.890Z,0
2017-10-19T02:37:13.326Z,0
2017-10-19T02:37:53.790Z,0
2017-10-19T02:38:34.212Z,0
2017-10-19T02:39:14.667Z,0
2017-10-19T02:39:55.087Z,0
2017-10-19T02:40:35.525Z,0
2017-10-19T02:41:16.005Z,0
2017-10-19T02:41:56.494Z,0
2017-10-19T02:42:36.954Z,0
2017-10-19T02:43:17.416Z,0
2017-10-19T02:43:57.828Z,0
2017-10-19T02:44:38.263Z,0
2017-10-19T02:45:18.742Z,0
2017-10-19T02:45:59.191Z,0
2017-10-19T02:46:39.643Z,0
2017-10-19T02:47:20.084Z,0
2017-10-19T02:48:00.531Z,0
2017-10-19T02:48:40.986Z,0
2017-10-19T02:49:21.467Z,0
2017-10-19T02:50:02.036Z,0
2017-10-19T02:50:42.440Z,0
2017-10-19T02:51:22.873Z,0
2017-10-19T02:52:03.353Z,0
2017-10-19T02:52:43.784Z,0
2017-10-19T02:53:24.220Z,0
2017-10-19T02:54:04.671Z,0
2017-10-19T02:54:45.161Z,0
2017-10-19T02:55:25.620Z,0
2017-10-19T02:56:06.048Z,0
2017-10-19T02:56:46.491Z,0
2017-10-19T02:57:26.964Z,0
2017-10-19T02:58:07.436Z,0
2017-10-19T02:58:47.847Z,0
2017-10-19T02:59:28.325Z,0
2017-10-19T03:00:08.796Z,0
2017-10-19T03:00:49.231Z,0
2017-10-19T03:01:29.696Z,0
2017-10-19T03:02:10.184Z,0
2017-10-19T03:02:50.639Z,0
2017-10-19T03:03:31.123Z,0
2017-10-19T03:04:11.571Z,0
2017-10-19T03:04:52.058Z,0
2017-10-19T03:05:32.522Z,0
2017-10-19T03:06:12.946Z,0
2017-10-19T03:06:53.484Z,0
2017-10-19T03:07:33.949Z,0
2017-10-19T03:08:14.414Z,0
2017-10-19T03:08:54.846Z,0
2017-10-19T03:09:35.290Z,0
2017-10-19T03:10:15.839Z,0
2017-10-19T03:10:56.267Z,0
2017-10-19T03:11:36.703Z,0
2017-10-19T03:12:17.152Z,0
2017-10-19T03:12:57.618Z,0
2017-10-19T03:13:38.092Z,0
2017-10-19T03:14:18.522Z,0
2017-10-19T03:14:59.005Z,0
2017-10-19T03:15:39.465Z,0
2017-10-19T03:16:19.915Z,0
2017-10-19T03:17:00.365Z,0
2017-10-19T03:17:40.876Z,0
2017-10-19T03:18:21.372Z,0
2017-10-19T03:19:01.859Z,0
2017-10-19T03:19:42.257Z,0
2017-10-19T03:20:22.767Z,0
2017-10-19T03:21:03.195Z,0
2017-10-19T03:21:43.648Z,0
2017-10-19T03:24:16.650Z,0
2017-10-19T03:26:44.568Z,0
2017-10-19T03:27:25.073Z,0
2017-10-19T03:28:05.539Z,0
2017-10-19T03:28:46.000Z,0
2017-10-19T03:29:26.508Z,0
2017-10-19T03:30:06.987Z,0
2017-10-19T03:30:47.468Z,0
2017-10-19T03:31:27.961Z,0
2017-10-19T03:32:08.405Z,0
2017-10-19T03:32:48.869Z,0
2017-10-19T03:33:29.340Z,0
2017-10-19T03:34:09.793Z,0
2017-10-19T03:34:50.206Z,0
2017-10-19T03:35:30.669Z,0
2017-10-19T03:36:11.113Z,0
2017-10-19T03:38:44.161Z,0
2017-10-19T03:39:24.616Z,0
2017-10-19T03:40:05.111Z,0
2017-10-19T03:40:45.546Z,0
2017-10-19T03:43:23.702Z,0
2017-10-19T03:45:36.413Z,0
2017-10-19T03:46:16.880Z,0
2017-10-19T03:46:57.366Z,0
2017-10-19T03:47:37.798Z,0
2017-10-19T03:50:10.824Z,0
2017-10-19T03:50:51.295Z,0
2017-10-19T03:51:31.797Z,0
2017-10-19T03:52:12.228Z,0
2017-10-19T03:52:52.687Z,0
2017-10-19T03:53:33.151Z,0
2017-10-19T03:54:13.605Z,0
2017-10-19T03:54:54.023Z,0
2017-10-19T03:55:34.499Z,0
2017-10-19T03:56:14.936Z,0
2017-10-19T03:56:55.396Z,0
2017-10-19T03:57:35.825Z,0
2017-10-19T03:58:16.279Z,0
2017-10-19T03:58:56.746Z,0
2017-10-19T03:59:37.222Z,0
2017-10-19T04:02:15.298Z,0
2017-10-19T04:02:55.783Z,0
2017-10-19T04:03:36.244Z,0
2017-10-19T04:04:16.782Z,0
2017-10-19T04:04:57.206Z,0
2017-10-19T04:05:37.696Z,0
2017-10-19T04:06:18.131Z,0
2017-10-19T04:06:58.575Z,0
2017-10-19T04:07:39.024Z,0
2017-10-19T04:08:19.505Z,0
2017-10-19T04:08:59.924Z,0
2017-10-19T04:11:12.703Z,0
2017-10-19T04:11:53.211Z,0
2017-10-19T04:12:33.675Z,0
2017-10-19T04:13:14.132Z,0
2017-10-19T04:13:54.636Z,0
2017-10-19T04:14:35.088Z,0
2017-10-19T04:15:15.552Z,0
2017-10-19T04:15:56.008Z,0
2017-10-19T04:16:36.434Z,0
2017-10-19T04:17:17.172Z,0
2017-10-19T04:17:57.638Z,0
2017-10-19T04:18:38.041Z,0
2017-10-19T04:19:18.487Z,0
2017-10-19T04:19:58.961Z,0
2017-10-19T04:20:39.415Z,0
2017-10-19T04:21:19.855Z,0
2017-10-19T04:22:00.297Z,0
2017-10-19T04:22:40.780Z,0
2017-10-19T04:23:21.190Z,0
2017-10-19T04:24:01.618Z,0
2017-10-19T04:24:42.135Z,0
2017-10-19T04:25:22.581Z,0
2017-10-19T04:26:03.066Z,0
2017-10-19T04:26:43.540Z,0
2017-10-19T04:27:24.182Z,0
2017-10-19T04:28:04.635Z,0
2017-10-19T04:28:45.098Z,0
2017-10-19T04:29:25.540Z,0
2017-10-19T04:31:58.904Z,0
2017-10-19T04:32:39.426Z,0
2017-10-19T04:33:19.919Z,0
2017-10-19T04:34:00.346Z,0
2017-10-19T04:34:40.785Z,0
2017-10-19T04:35:21.240Z,0
2017-10-19T04:36:01.691Z,0
2017-10-19T04:38:14.421Z,0
2017-10-19T04:38:54.875Z,0
2017-10-19T04:41:32.910Z,0
2017-10-19T04:42:13.409Z,0
2017-10-19T04:42:53.846Z,0
2017-10-19T04:43:34.274Z,0
2017-10-19T04:44:14.734Z,0
2017-10-19T04:44:55.233Z,0
2017-10-19T04:45:35.657Z,0
2017-10-19T04:46:16.115Z,0
2017-10-19T04:46:56.577Z,0
2017-10-19T04:47:37.042Z,0
2017-10-19T04:48:17.478Z,0
2017-10-19T04:48:57.919Z,0
2017-10-19T04:49:38.377Z,0
2017-10-19T04:50:18.847Z,0
2017-10-19T04:50:59.281Z,0
2017-10-19T04:53:27.219Z,0
2017-10-19T04:54:07.751Z,0
2017-10-19T04:54:48.167Z,0
2017-10-19T04:55:28.654Z,0
2017-10-19T04:56:09.136Z,0
2017-10-19T04:56:49.660Z,0
2017-10-19T04:57:30.135Z,0
2017-10-19T04:58:10.544Z,0
2017-10-19T04:58:50.987Z,0
2017-10-19T04:59:31.429Z,0
2017-10-19T05:00:11.937Z,0
2017-10-19T05:00:52.452Z,0
2017-10-19T05:01:32.827Z,0
2017-10-19T05:02:13.296Z,0
2017-10-19T05:02:53.739Z,0
2017-10-19T05:03:34.188Z,0
2017-10-19T05:04:14.657Z,0
2017-10-19T05:04:55.150Z,0
2017-10-19T05:05:35.632Z,0
2017-10-19T05:08:13.752Z,0
2017-10-19T05:08:54.188Z,0
2017-10-19T05:09:34.667Z,0
2017-10-19T05:10:15.148Z,0
2017-10-19T05:12:53.276Z,0
2017-10-19T05:13:33.796Z,0
2017-10-19T05:14:14.257Z,0
2017-10-19T05:16:42.226Z,0
2017-10-19T05:17:22.692Z,0
2017-10-19T05:18:03.171Z,0
2017-10-19T05:18:43.655Z,0
2017-10-19T05:19:24.103Z,0
2017-10-19T05:20:04.577Z,0
2017-10-19T05:20:45.001Z,0
2017-10-19T05:23:12.955Z,0
2017-10-19T05:23:53.413Z,0
2017-10-19T05:24:33.842Z,0
2017-10-19T05:25:14.323Z,0
2017-10-19T05:25:54.781Z,0
2017-10-19T05:26:35.244Z,0
2017-10-19T05:27:15.738Z,0
2017-10-19T05:27:56.173Z,0
2017-10-19T05:28:36.634Z,0
2017-10-19T05:29:17.083Z,0
2017-10-19T05:31:34.904Z,0
2017-10-19T05:32:15.417Z,0
2017-10-19T05:32:55.822Z,0
2017-10-19T05:33:36.304Z,0
2017-10-19T05:34:16.733Z,0
2017-10-19T05:34:57.161Z,0
2017-10-19T05:35:37.734Z,0
2017-10-19T05:36:18.264Z,0
2017-10-19T05:36:58.808Z,0
2017-10-19T05:37:39.282Z,0
2017-10-19T05:38:19.745Z,0
2017-10-19T05:39:00.234Z,0
2017-10-19T05:39:40.784Z,0
2017-10-19T05:40:21.320Z,0
2017-10-19T05:41:01.906Z,0
2017-10-19T05:41:42.395Z,0
2017-10-19T05:42:22.923Z,0
2017-10-19T05:43:03.401Z,0
2017-10-19T05:45:21.263Z,0
2017-10-19T05:46:01.803Z,0
2017-10-19T05:46:42.342Z,0
2017-10-19T05:47:22.875Z,0
2017-10-19T05:48:03.370Z,0
2017-10-19T05:50:16.135Z,5
2017-10-19T05:50:56.672Z,5
2017-10-19T05:51:37.173Z,5
2017-10-19T05:52:17.674Z,5
2017-10-19T05:52:58.187Z,5
2017-10-19T05:53:38.580Z,5
2017-10-19T05:54:19.042Z,5
2017-10-19T05:54:59.519Z,5
2017-10-19T05:55:39.922Z,5
2017-10-19T05:56:20.384Z,5
2017-10-19T05:57:00.818Z,10
2017-10-19T05:57:41.284Z,10
2017-10-19T05:58:21.766Z,10
2017-10-19T05:59:02.205Z,10
2017-10-19T05:59:42.661Z,10
2017-10-19T06:00:23.191Z,10
2017-10-19T06:01:03.658Z,10
2017-10-19T06:01:44.185Z,10
2017-10-19T06:02:24.663Z,15
2017-10-19T06:03:05.097Z,15
2017-10-19T06:03:45.574Z,15
2017-10-19T06:06:03.400Z,20
2017-10-19T06:06:43.998Z,20
2017-10-19T06:07:24.469Z,20
2017-10-19T06:08:04.872Z,20
2017-10-19T06:08:45.327Z,20
2017-10-19T06:09:25.735Z,20
2017-10-19T06:10:06.250Z,20
2017-10-19T06:10:46.712Z,25
2017-10-19T06:11:27.172Z,25
2017-10-19T06:12:07.654Z,25
2017-10-19T06:12:48.140Z,25
2017-10-19T06:13:28.574Z,25
2017-10-19T06:14:09.012Z,25
2017-10-19T06:14:49.453Z,25
2017-10-19T06:15:29.882Z,30
2017-10-19T06:16:10.332Z,30
2017-10-19T06:16:50.868Z,30
2017-10-19T06:17:31.362Z,30
2017-10-19T06:18:11.869Z,30
2017-10-19T06:18:52.288Z,30
2017-10-19T06:19:32.750Z,30
2017-10-19T06:20:13.178Z,35
2017-10-19T06:20:53.624Z,35
2017-10-19T06:23:06.373Z,35
2017-10-19T06:23:46.842Z,35
2017-10-19T06:24:27.366Z,35
2017-10-19T06:26:45.118Z,35
2017-10-19T06:27:25.599Z,40
2017-10-19T06:28:06.096Z,40
2017-10-19T06:28:46.585Z,40
2017-10-19T06:29:27.075Z,40
2017-10-19T06:30:07.531Z,40
2017-10-19T06:30:47.985Z,45
2017-10-19T06:33:26.119Z,45
2017-10-19T06:34:06.499Z,50
2017-10-19T06:34:46.912Z,50
2017-10-19T06:35:27.348Z,50
2017-10-19T06:36:07.825Z,50
2017-10-19T06:36:48.301Z,50
2017-10-19T06:37:28.765Z,50
2017-10-19T06:38:09.189Z,50
2017-10-19T06:38:49.624Z,50
2017-10-19T06:39:30.089Z,50
2017-10-19T06:40:10.550Z,55
2017-10-19T06:40:51.020Z,55
2017-10-19T06:41:31.462Z,55
2017-10-19T06:42:11.937Z,60
2017-10-19T06:44:50.089Z,75
2017-10-19T06:45:30.551Z,75
2017-10-19T06:46:11.003Z,80
2017-10-19T06:46:51.493Z,85
2017-10-19T06:47:31.910Z,85
2017-10-19T06:48:12.387Z,85
2017-10-19T06:48:52.806Z,90
2017-10-19T06:51:10.608Z,90
2017-10-19T06:51:51.078Z,90
2017-10-19T06:52:31.612Z,90
2017-10-19T06:53:12.109Z,85
2017-10-19T06:53:52.584Z,85
2017-10-19T06:54:33.060Z,85
2017-10-19T06:55:13.517Z,80
2017-10-19T06:55:53.972Z,80
2017-10-19T06:56:34.436Z,80
2017-10-19T06:57:14.918Z,80
2017-10-19T06:57:55.364Z,80
2017-10-19T06:58:35.852Z,80
2017-10-19T06:59:16.344Z,80
2017-10-19T06:59:56.793Z,80
2017-10-19T07:00:37.222Z,85
2017-10-19T07:01:17.665Z,85
2017-10-19T07:01:58.160Z,85
2017-10-19T07:02:38.620Z,90
2017-10-19T07:03:19.075Z,100
2017-10-19T07:03:59.584Z,100
2017-10-19T07:04:40.125Z,110
2017-10-19T07:05:20.591Z,115
2017-10-19T07:07:38.401Z,130
2017-10-19T07:08:18.872Z,135
2017-10-19T07:08:59.391Z,130
2017-10-19T07:09:39.825Z,125
2017-10-19T07:10:20.339Z,125
2017-10-19T07:11:00.774Z,120
2017-10-19T07:11:41.295Z,120
2017-10-19T07:12:21.819Z,110
2017-10-19T07:13:02.286Z,110
2017-10-19T07:13:42.746Z,110
2017-10-19T07:14:23.205Z,105
2017-10-19T07:15:03.635Z,100
2017-10-19T07:15:44.070Z,95
2017-10-19T07:16:24.513Z,95
2017-10-19T07:17:04.977Z,90
2017-10-19T07:19:17.676Z,95
2017-10-19T07:19:58.169Z,95
2017-10-19T07:20:38.613Z,100
2017-10-19T07:21:19.034Z,100
2017-10-19T07:21:59.519Z,100
2017-10-19T07:22:39.942Z,100
2017-10-19T07:23:20.418Z,105
2017-10-19T07:24:00.905Z,105
2017-10-19T07:24:41.322Z,105
2017-10-19T07:25:21.757Z,100
2017-10-19T07:26:02.243Z,100
2017-10-19T07:26:42.843Z,105
2017-10-19T07:27:23.282Z,110
2017-10-19T07:28:03.751Z,110
2017-10-19T07:28:44.270Z,110
2017-10-19T07:29:24.703Z,110
2017-10-19T07:30:05.134Z,110
2017-10-19T07:30:45.578Z,110
2017-10-19T07:31:26.063Z,115
2017-10-19T07:32:06.501Z,120
2017-10-19T07:32:47.095Z,125
2017-10-19T07:33:28.284Z,135
2017-10-19T07:34:08.941Z,140
2017-10-19T07:34:49.599Z,145
2017-10-19T07:35:30.292Z,155
2017-10-19T07:36:10.942Z,160
2017-10-19T07:36:51.582Z,165
2017-10-19T07:37:32.211Z,170
2017-10-19T07:38:12.807Z,170
2017-10-19T07:38:53.366Z,170
2017-10-19T07:39:33.956Z,165
2017-10-19T07:40:14.414Z,170
2017-10-19T07:40:54.908Z,175
2017-10-19T07:41:35.408Z,175
2017-10-19T07:42:15.865Z,175
2017-10-19T07:42:56.408Z,175
2017-10-19T07:43:36.855Z,175
2017-10-19T07:44:17.370Z,175
2017-10-19T07:44:57.817Z,170
2017-10-19T07:45:38.278Z,170
2017-10-19T07:46:18.748Z,180
2017-10-19T07:46:59.198Z,185
2017-10-19T07:47:39.703Z,185
2017-10-19T07:48:20.227Z,180
2017-10-19T07:49:00.722Z,175
2017-10-19T07:49:41.184Z,175
2017-10-19T07:50:22.293Z,175
2017-10-19T07:52:50.275Z,165
2017-10-19T07:53:30.762Z,165
2017-10-19T07:54:11.260Z,165
2017-10-19T07:54:51.732Z,175
2017-10-19T07:55:32.231Z,180
2017-10-19T07:56:12.709Z,175
2017-10-19T07:56:53.173Z,180
2017-10-19T07:57:33.629Z,180
2017-10-19T07:58:14.133Z,180
2017-10-19T07:58:54.725Z,180
2017-10-19T07:59:35.234Z,180
2017-10-19T08:00:15.650Z,180
2017-10-19T08:00:56.212Z,185
2017-10-19T08:01:36.696Z,185
2017-10-19T08:04:14.830Z,190
2017-10-19T08:04:55.334Z,190
2017-10-19T08:05:35.775Z,195
2017-10-19T08:06:16.197Z,205
2017-10-19T08:06:56.704Z,195
2017-10-19T08:07:37.183Z,205
2017-10-19T08:09:50.310Z,210
2017-10-19T08:10:30.860Z,210
2017-10-19T08:11:11.354Z,195
2017-10-19T08:13:44.446Z,195
2017-10-19T08:14:24.929Z,195
2017-10-19T08:15:05.412Z,200
2017-10-19T08:15:45.921Z,205
2017-10-19T08:16:26.384Z,205
2017-10-19T08:17:06.893Z,205
2017-10-19T08:17:47.378Z,205
2017-10-19T08:20:25.584Z,210
2017-10-19T08:21:06.084Z,215
2017-10-19T08:21:46.692Z,210
2017-10-19T08:22:27.587Z,210
2017-10-19T08:23:08.109Z,210
2017-10-19T08:23:48.633Z,205
2017-10-19T08:24:29.238Z,190
2017-10-19T08:25:09.760Z,185
2017-10-19T08:25:50.345Z,180
2017-10-19T08:26:30.947Z,175
2017-10-19T08:27:11.413Z,180
2017-10-19T08:29:44.535Z,180
2017-10-19T08:30:25.015Z,180
2017-10-19T08:31:05.520Z,180
2017-10-19T08:31:46.103Z,185
2017-10-19T08:32:26.589Z,180
2017-10-19T08:33:07.096Z,185
2017-10-19T08:33:47.590Z,185
2017-10-19T08:34:28.076Z,190
2017-10-19T08:35:08.577Z,190
2017-10-19T08:35:49.171Z,190
2017-10-19T08:36:29.617Z,190
2017-10-19T08:38:47.496Z,190
2017-10-19T08:39:27.996Z,195
2017-10-19T08:40:08.516Z,195
2017-10-19T08:40:49.009Z,195
2017-10-19T08:41:29.497Z,200
2017-10-19T08:42:09.967Z,200
2017-10-19T08:42:50.450Z,200
2017-10-19T08:43:30.862Z,185
2017-10-19T08:44:11.384Z,200
2017-10-19T08:44:51.895Z,200
2017-10-19T08:45:32.476Z,200
2017-10-19T08:46:12.917Z,205
2017-10-19T08:46:53.426Z,190
2017-10-19T08:47:33.952Z,195
2017-10-19T08:48:14.468Z,195
2017-10-19T08:48:55.031Z,190
2017-10-19T08:49:35.548Z,195
2017-10-19T08:50:16.043Z,200
2017-10-19T08:50:56.514Z,195
2017-10-19T08:51:37.009Z,200
2017-10-19T08:52:17.486Z,200
2017-10-19T08:52:57.957Z,195
2017-10-19T08:53:38.418Z,205
2017-10-19T08:54:18.959Z,205
2017-10-19T08:54:59.463Z,205
2017-10-19T08:55:40.164Z,205
2017-10-19T08:56:20.722Z,205
2017-10-19T08:57:01.353Z,215
2017-10-19T08:57:41.926Z,210
2017-10-19T08:58:22.402Z,205
2017-10-19T08:59:02.908Z,215
2017-10-19T08:59:43.436Z,215
2017-10-19T09:00:24.001Z,210
2017-10-19T09:01:04.510Z,225
2017-10-19T09:03:32.608Z,240
2017-10-19T09:04:12.977Z,255
2017-10-19T09:04:53.464Z,265
2017-10-19T09:05:33.911Z,265
2017-10-19T09:06:14.331Z,285
2017-10-19T09:06:54.823Z,285
2017-10-19T09:07:35.336Z,300
2017-10-19T09:08:15.758Z,320
2017-10-19T09:08:56.235Z,330
2017-10-19T09:09:36.698Z,330
2017-10-19T09:12:09.737Z,365
2017-10-19T09:12:50.192Z,360
2017-10-19T09:13:30.648Z,360
2017-10-19T09:14:11.148Z,350
2017-10-19T09:16:28.999Z,340
2017-10-19T09:17:09.473Z,340
2017-10-19T09:17:49.978Z,345
2017-10-19T09:18:30.419Z,330
2017-10-19T09:19:11.194Z,320
2017-10-19T09:19:51.676Z,325
2017-10-19T09:20:32.391Z,330
2017-10-19T09:21:13.088Z,350
2017-10-19T09:21:53.552Z,345
2017-10-19T09:22:33.999Z,350
2017-10-19T09:23:14.509Z,355
2017-10-19T09:23:55.080Z,355
2017-10-19T09:24:35.575Z,355
2017-10-19T09:25:16.007Z,360
2017-10-19T09:25:56.472Z,370
2017-10-19T09:26:36.926Z,370
2017-10-19T09:27:17.387Z,375
2017-10-19T09:27:57.925Z,380
2017-10-19T09:28:39.421Z,355
2017-10-19T09:29:19.975Z,335
2017-10-19T09:30:00.460Z,330
2017-10-19T09:30:41.026Z,320
2017-10-19T09:31:21.452Z,305
2017-10-19T09:32:01.943Z,295
2017-10-19T09:32:42.459Z,300
2017-10-19T09:33:22.980Z,290
2017-10-19T09:34:03.432Z,280
2017-10-19T09:34:43.875Z,275
2017-10-19T09:35:24.453Z,270
2017-10-19T09:37:57.699Z,255
2017-10-19T09:38:38.573Z,270
2017-10-19T09:39:20.412Z,260
2017-10-19T09:40:01.083Z,280
2017-10-19T09:40:41.887Z,260
2017-10-19T09:41:22.659Z,260
2017-10-19T09:44:01.847Z,310
2017-10-19T09:44:42.433Z,330
2017-10-19T09:45:23.126Z,350
2017-10-19T09:46:04.297Z,375
2017-10-19T09:46:45.288Z,400
2017-10-19T09:47:26.152Z,415
2017-10-19T09:48:07.370Z,435
2017-10-19T09:48:48.076Z,440
2017-10-19T09:49:28.669Z,445
2017-10-19T09:50:09.649Z,445
2017-10-19T09:50:50.340Z,440
2017-10-19T09:51:31.292Z,440
2017-10-19T09:52:11.776Z,445
2017-10-19T09:52:52.245Z,435
2017-10-19T09:53:32.868Z,430
2017-10-19T09:54:13.371Z,430
2017-10-19T09:54:54.124Z,430
2017-10-19T09:55:34.937Z,430
2017-10-19T09:56:15.835Z,425
2017-10-19T09:56:56.653Z,465
2017-10-19T09:57:38.758Z,435
2017-10-19T09:58:19.567Z,410
2017-10-19T09:59:01.729Z,400
2017-10-19T09:59:43.896Z,385
2017-10-19T10:00:24.763Z,380
2017-10-19T10:01:05.292Z,355
2017-10-19T10:01:45.778Z,340
2017-10-19T10:02:26.256Z,330
2017-10-19T10:04:54.205Z,350
2017-10-19T10:05:34.700Z,335
2017-10-19T10:06:15.286Z,335
2017-10-19T10:06:55.773Z,365
2017-10-19T10:07:36.308Z,370
2017-10-19T10:08:16.807Z,355
2017-10-19T10:08:57.326Z,350
2017-10-19T10:09:37.787Z,345
2017-10-19T10:10:18.269Z,340
2017-10-19T10:10:58.766Z,330
2017-10-19T10:11:39.236Z,330
2017-10-19T10:12:19.727Z,325
2017-10-19T10:13:00.203Z,305
2017-10-19T10:13:40.742Z,300
2017-10-19T10:14:21.224Z,300
2017-10-19T10:15:01.733Z,290
2017-10-19T10:15:42.215Z,285
2017-10-19T10:16:22.702Z,285
2017-10-19T10:17:03.255Z,275
2017-10-19T10:17:43.807Z,270
2017-10-19T10:18:24.260Z,270
2017-10-19T10:19:04.747Z,275
2017-10-19T10:19:45.238Z,290
2017-10-19T10:22:03.041Z,310
2017-10-19T10:22:43.542Z,315
2017-10-19T10:23:24.064Z,345
2017-10-19T10:24:04.580Z,335
2017-10-19T10:24:45.077Z,345
2017-10-19T10:25:25.608Z,355
2017-10-19T10:26:06.113Z,350
2017-10-19T10:26:46.610Z,355
2017-10-19T10:27:27.083Z,365
2017-10-19T10:28:07.565Z,375
2017-10-19T10:28:48.062Z,350
2017-10-19T10:29:28.576Z,355
2017-10-19T10:30:09.084Z,355
2017-10-19T10:30:49.589Z,345
2017-10-19T10:31:30.145Z,350
2017-10-19T10:32:10.671Z,400
2017-10-19T10:32:51.157Z,365
2017-10-19T10:33:31.653Z,385
2017-10-19T10:34:12.148Z,370
2017-10-19T10:34:53.586Z,375
2017-10-19T10:37:06.497Z,395
2017-10-19T10:37:46.990Z,350
2017-10-19T10:38:27.443Z,335
2017-10-19T10:39:07.902Z,330
2017-10-19T10:39:48.402Z,340
2017-10-19T10:40:28.863Z,350
2017-10-19T10:41:09.379Z,385
2017-10-19T10:41:49.811Z,850
2017-10-19T10:42:30.254Z,490
2017-10-19T10:44:43.026Z,455
2017-10-19T10:45:23.501Z,435
2017-10-19T10:46:04.049Z,415
2017-10-19T10:46:44.501Z,395
2017-10-19T10:47:24.952Z,390
2017-10-19T10:48:05.391Z,380
2017-10-19T10:48:45.852Z,385
2017-10-19T10:49:26.341Z,385
2017-10-19T10:50:06.862Z,380
2017-10-19T10:52:45.039Z,360
2017-10-19T10:53:25.537Z,360
2017-10-19T10:54:06.042Z,405
2017-10-19T10:54:46.531Z,580
2017-10-19T10:55:27.034Z,480
2017-10-19T10:56:07.593Z,455
2017-10-19T10:56:48.158Z,550
2017-10-19T10:57:28.667Z,1570
2017-10-19T10:59:46.532Z,590
2017-10-19T11:00:27.104Z,635
2017-10-19T11:01:07.533Z,650
2017-10-19T11:01:48.009Z,760
2017-10-19T11:02:28.473Z,990
2017-10-19T11:03:09.019Z,770
2017-10-19T11:03:49.556Z,630
2017-10-19T11:04:30.056Z,535
2017-10-19T11:05:10.571Z,470
2017-10-19T11:05:51.049Z,470
2017-10-19T11:06:31.548Z,655
2017-10-19T11:07:11.997Z,725
2017-10-19T11:07:52.435Z,630
2017-10-19T11:08:32.908Z,790
2017-10-19T11:09:13.408Z,910
2017-10-19T11:09:53.890Z,1620
2017-10-19T11:12:32.070Z,1890
2017-10-19T11:13:12.543Z,1965
2017-10-19T11:13:53.035Z,605
2017-10-19T11:14:33.557Z,1965
2017-10-19T11:15:14.013Z,1225
2017-10-19T11:15:54.543Z,760
2017-10-19T11:16:37.696Z,635
2017-10-19T11:17:19.001Z,795
2017-10-19T11:17:59.675Z,365
2017-10-19T11:18:40.151Z,395
2017-10-19T11:19:20.643Z,645
2017-10-19T11:21:48.718Z,550
2017-10-19T11:22:29.877Z,1440
2017-10-19T11:23:12.097Z,1135
2017-10-19T11:23:54.066Z,865
2017-10-19T11:24:34.587Z,590
2017-10-19T11:25:15.083Z,770
2017-10-19T11:27:33.104Z,2040
2017-10-19T11:28:13.522Z,1020
2017-10-19T11:28:54.044Z,1230